LFLCLFLB

Guest
Details From LFLC - Clermont-Ferrand_Auvergne
To LFLB - Chambery Aix-les-Bains
Flight Number -
Tags decoded
Created
Modified
Stats Distance 126 nm / 233 km
Max Altitude 0 ft / 0 m
Waypoints 7
Social Downloads 12
Likes 0
Share

Download

Looking for another format? Having issues loading an existing format? Contact us
Advertisement - Login to hide

Notes

Requested: LFLC BELEP MADOT MEBAK LSE GOVNA PIRUV CBY LFLB Unmatched points: GOVNA PIRUV

Route

LFLC BELEP MADOT MEBAK LSE CBY LFLB

ID Type Via Altitude (ft/m) Position (lat/lon) Dist (leg/tot) Name
O LFLC APT - 0 / 0 45.78670 / 3.16997 - / 0 nm Clermont-Ferrand_Auvergne
BELEP FIX - 0 / 0 45.79160 / 4.13161 40 / 40 nm
MADOT FIX - 0 / 0 45.73010 / 4.51400 16 / 56 nm
MEBAK FIX - 0 / 0 45.70800 / 4.64886 5 / 62 nm
LSE VOR - 0 / 0 45.74550 / 5.09058 18 / 81 nm LYON SAINT EXUPERY
CBY VOR - 0 / 0 45.88190 / 5.75731 29 / 110 nm CHAMBERY
O LFLB APT - 0 / 0 45.63650 / 5.88084 15 / 125 nm Chambery Aix-les-Bains

Altitude Profile

Advertisement - Login to hide

LFLC

Details ICAO LFLC (CFE)
Name Clermont-Ferrand Auvergne
Region France
Timezone Europe/Paris (UTC+2.0)
Stats Elevation 1,091 ft / 333 m (AMSL)
Location 45.786700° 3.169980°
Runways 1
Magnetic Variation 1.453° E

METAR

LFLC 192330Z AUTO 31003KT 230V010 CAVOK 15/10 Q1020 TEMPO 18020G35KT

Decode

TAF

TAF LFLC 191700Z 1918/2018 19008KT CAVOK BECMG 1919/1921 18015G25KT PROB30 TEMPO 2005/2011 18020G35KT BECMG 2016/2018 18020G35KT 9999 SCT050

Decode

Departure Runways

ID Width Length Bearing (true/mag) Surface Threshold Overrun Markings Lighting
08 148 ft / 45 m 9,869 ft / 3,008 m 81.95° / 80.50° ASPHALT 0 ft / 0 m 0 ft / 0 m APP CENTERLINE EDGE THRESHOLD
26 148 ft / 45 m 9,869 ft / 3,008 m 261.98° / 260.52° ASPHALT 469 ft / 143 m 0 ft / 0 m PREC-APP CENTERLINE EDGE THRESHOLD ALSF-II TDZ

LFLB

Details ICAO LFLB (CMF)
Name Chambery Aix-les-Bains
Region France
Timezone Europe/Paris (UTC+2.0)
Stats Elevation 777 ft / 237 m (AMSL)
Location 45.636500° 5.880840°
Runways 2
Magnetic Variation 2.149° E

METAR

LFLB 192330Z AUTO 14003KT CAVOK 07/07 Q1025

Decode

TAF

TAF LFLB 191901Z 1919/2015 CNL

Decode

Destination Runways

ID Width Length Bearing (true/mag) Surface Threshold Overrun Markings Lighting
18 148 ft / 45 m 6,636 ft / 2,023 m 176.75° / 174.61° ASPHALT 764 ft / 233 m 0 ft / 0 m PREC-APP EDGE THRESHOLD MALSF
18L 177 ft / 54 m 2,289 ft / 698 m 176.75° / 174.60° GRASS 0 ft / 0 m 0 ft / 0 m NONE
36 148 ft / 45 m 6,636 ft / 2,023 m 356.76° / 354.61° ASPHALT 453 ft / 138 m 0 ft / 0 m PREC-APP EDGE THRESHOLD
36R 177 ft / 54 m 2,289 ft / 698 m 356.75° / 354.60° GRASS 318 ft / 97 m 0 ft / 0 m NONE

Approach Navaids

Runway Type Ident Frequency Range Bearing (true/mag) Slope Elevation
18 GS CY 109.50 MHz 10 nm / 19 km 176.76° / 174.61 ° 4.46° 777 ft / 237 m (AMSL)
18 DME CY 109.50 MHz 27 nm / 50 km - - 779 ft / 237 m (AMSL)
18 LOC-ILS CY 109.50 MHz 18 nm / 33 km 176.76° / 174.61 ° - 777 ft / 237 m (AMSL)

Popular Alternatives